AirNav   Pilot Hours Calculator
 
 1101 users online  

KVLL Oakland/Troy Airport
Troy, Michigan, USA

GOING TO TROY?


FAA INFORMATION EFFECTIVE 15 AUGUST 2019

Location

FAA Identifier: VLL
Lat/Long: 42-32-34.6000N 083-10-40.4000W
42-32.576667N 083-10.673333W
42.5429444,-83.1778889
(estimated)
Elevation: 727.2 ft. / 221.7 m (surveyed)
Variation: 06W (1995)
From city: 2 miles E of TROY, MI
Time zone: UTC -4 (UTC -5 during Standard Time)
Zip code: 48084

Airport Operations

Airport use: Open to the public
Control tower: no
ARTCC: CLEVELAND CENTER
FSS: LANSING FLIGHT SERVICE STATION
NOTAMs facility: VLL (NOTAM-D service available)
Attendance: 0800-1800
Pattern altitude: 1727.2 ft. MSL
Wind indicator: lighted
Segmented circle: no
Lights: ACTVT MIRL RY 09/27 & PAPI RYS 09 & 27 - CTAF.
Beacon: white-green (lighted land airport)
Operates sunset to sunrise.
Landing fee: yes

Airport Communications

CTAF/UNICOM: 123.05
WX AWOS-3: 119.475 (248-288-4649)
DETROIT APPROACH: 134.3
DETROIT DEPARTURE: 134.3
WX ASOS at DET (11 nm SE): PHONE 313-371-9696
WX ASOS at PTK (13 nm NW): 125.025 (248-886-8551)

Nearby radio navigation aids

VOR radial/distance  VOR name  Freq  Var
SVMr069/20.1SALEM VORTAC114.3003W
DXOr029/21.5DETROIT VOR/DME113.4006W
YQGr325/23.4WINDSOR VOR/DME113.8006W
CRLr026/32.2CARLETON VOR/DME115.7003W
FNTr141/35.7FLINT VORTAC116.9006W

 
NDB name  Hdg/Dist  Freq  Var  ID
GROSSE ILE005/26.541907WRYS .-. -.-- ...

Airport Services

Fuel available: 100LL JET-A
Parking: tiedowns
Airframe service: NONE
Powerplant service: NONE

Runway Information

Runway 9/27

Dimensions: 3549 x 60 ft. / 1082 x 18 m
Surface: asphalt, in fair condition
Runway edge lights: medium intensity
RUNWAY 9  RUNWAY 27
Latitude: 42-32.575973N42-32.578848N
Longitude: 083-11.068925W083-10.278788W
Elevation: 727.0 ft.701.0 ft.
Traffic pattern: leftleft
Runway heading: 096 magnetic, 090 true276 magnetic, 270 true
Markings: nonprecision, in good conditionnonprecision, in good condition
Visual slope indicator: 2-light PAPI on right (3.75 degrees glide path)2-light PAPI on left (3.75 degrees glide path)
Runway end identifier lights: nono
Touchdown point: yes, no lightsyes, no lights
Obstructions: 19 ft. tree, 207 ft. from runway, 137 ft. right of centerline30 ft. tree, 200 ft. from runway, 125 ft. left of centerline

Airport Ownership and Management from official FAA records

Ownership: Publicly-owned
Owner: OAKLAND COUNTY
6500 HIGHLAND ROAD
WATERFORD, MI 48327
Phone (248) 288-6100
ARPT PHONE 248-666-3900
Manager: CHERYL BUSH
6500 HIGHLAND RD
WATERFORD, MI 48327
Phone 248-666-3900

Airport Operational Statistics

Aircraft based on the field: 120
Single engine airplanes: 109
Multi engine airplanes: 7
Helicopters: 3
Ultralights: 1
    
Aircraft operations: avg 82/day *
50% transient general aviation
50% local general aviation
* for 12-month period ending 31 December 2019

Additional Remarks

DEER AND BIRDS ON & INVOF ARPT.
RY 09 +3 FT BERM 316 FT FM THLD.
NO TGL OR PRACTICE TFC PATTERNS.
FOR CD CTC DETROIT APCH AT 800-499-8181.

Instrument Procedures

NOTE: All procedures below are presented as PDF files. If you need a reader for these files, you should download the free Adobe Reader.

NOT FOR NAVIGATION. Please procure official charts for flight.
FAA instrument procedures published for use from 15 August 2019 at 0901Z to 12 September 2019 at 0900Z.

 
STARs - Standard Terminal Arrivals
FOREY ONE (RNAV)   download (151KB)
OKLND ONE (RNAV)   download (131KB)
PETTE ONE (RNAV)   download (153KB)
RRALF ONE (RNAV)   download (142KB)
 
IAPs - Instrument Approach Procedures
RNAV (GPS) RWY 09   download (161KB)
 
Departure Procedures
BARII TWO (RNAV) **NEW**   download (139KB)
CCOBB TWO (RNAV) **NEW**   download (185KB)
CLVIN TWO (RNAV) **NEW**   download (153KB)
HHOWE TWO (RNAV) **NEW**   download (169KB)
KAYLN TWO (RNAV) **NEW**   download (149KB)
LIDDS TWO (RNAV) **NEW**   download (164KB)
MIGGY TWO (RNAV) **NEW**   download (181KB)
PAVYL TWO (RNAV) **NEW**   download (158KB)
SNDRS TWO (RNAV) **NEW**   download (195KB)
TRMML TWO (RNAV) **NEW**   download (143KB)
ZETTR TWO (RNAV) **NEW**   download (186KB)
NOTE: Special Take-Off Minimums/Departure Procedures apply   download (125KB)

Other nearby airports with instrument procedures:

KDET - Coleman A Young Municipal Airport (11 nm SE)
KPTK - Oakland County International Airport (13 nm NW)
KMTC - Selfridge Air National Guard Base (16 nm E)
1D2 - Canton-Plymouth-Mettetal Airport (17 nm SW)
57D - Ray Community Airport (17 nm NE)
D98 - Romeo State Airport (18 nm NE)
Y47 - Oakland Southwest Airport (20 nm W)
 
Loc | Ops | Rwys | IFR | FBO | Links
Com | Nav | Svcs | Stats | Notes
Area around KVLL (Oakland/Troy Airport)
 
Road maps at: MapQuest Bing Google
 
Aerial photo
WARNING: Photo may not be current or correct
Aerial photo of KVLL (Oakland/Troy Airport)
Photo by Jeff Schuster
Photo taken 29-Jun-2014
looking west.

Do you have a better or more recent aerial photo of Oakland/Troy Airport that you would like to share? If so, please send us your photo.

 
Sectional chart

 
Airport distance calculator
Flying to Oakland/Troy Airport? Find the distance to fly.

From to KVLL

Sunrise and sunset
Times for 21-Aug-2019
 Local
(UTC-4)
 Zulu
(UTC)
Morning civil twilight06:1710:17
Sunrise06:4710:47
Sunset20:2500:25
Evening civil twilight20:5500:55

Current date and time
Zulu (UTC)  22-Aug-2019 01:08:08
Local (UTC-4)  21-Aug-2019 21:08:08
 
METAR
KVLL 220056Z AUTO 30003KT 10SM CLR 26/22 A2989 RMK AO2 T02550220
KDET 
11nm SE 
220053Z 31003KT 10SM CLR 24/22 A2987 RMK AO2 RAE2354 SLP112 P0000 T02390222
KPTK 
13nm NW 
220053Z 29007KT 10SM SCT150 24/18 A2987 RMK AO2 SLP110 T02440183
KMTC 
17nm E 
212355Z 25010KT 10SM FEW060 FEW150 BKN230 27/20 A2984 RMK AO2A SLP106 T02690195 10305 20267 58002
CYQG 
19nm SE 
220000Z AUTO 27008KT 9SM FEW048 BKN093 26/20 A2987 RMK SLP114 DENSITY ALT 2100FT
KDTW 
20nm S 
220053Z 27006KT 9SM FEW055 SCT110 BKN200 24/20 A2988 RMK AO2 SLP112 T02440200
TAF
KDET 
11nm SE 
211720Z 2118/2218 23013KT P6SM SCT040 BKN250 FM212000 27011KT P6SM BKN045 FM220300 36005KT P6SM OVC120 FM221300 36007KT P6SM BKN250 FM221700 33007KT P6SM SCT050
KPTK 
13nm NW 
211720Z 2118/2218 25013KT P6SM SCT035 FM212000 28012KT P6SM BKN040 FM220200 35005KT P6SM BKN150 FM221200 36007KT P6SM SKC FM221700 33007KT P6SM SCT050
KMTC 
17nm E 
211702Z 2117/2223 13008KT 9000 -SHRA SCT028 QNH2987INS TEMPO 2119/2122 16015G25KT -TSRA BKN025CB OVC045 BECMG 2123/2124 VRB06KT 9999 NSW SCT020 QNH2993INS TX29/2121Z TN16/2215Z
CYQG 
19nm SE 
212140Z 2121/2218 25012KT P6SM SCT040 PROB30 2121/2124 VRB20G35KT 1SM +TSRA BR BKN015 OVC040CB FM220100 26007KT P6SM BKN050 BECMG 2202/2204 32008KT FM220500 01008KT P6SM SCT020 BKN050 TEMPO 2205/2213 BKN020 OVC050 BECMG 2211/2213 03008KT RMK FCST BASED ON AUTO OBS. NXT FCST BY 220000Z
KDTW 
20nm S 
212259Z 2123/2224 25013KT P6SM SCT045 BKN070 BKN200 TEMPO 2123/2124 2SM SHRA BKN040 FM220000 27011KT P6SM BKN045 FM220300 36005KT P6SM OVC120 FM221300 36007KT P6SM BKN250 FM221700 33007KT P6SM SCT050
NOTAMs
Click for the latest NOTAMs
NOTAMs are issued by the DoD/FAA and will open in a separate window not controlled by AirNav.

 

 
 

FBO, Fuel Providers, and Aircraft Ground Support

  
 Business Name 
 
 Contact 
 
 Services / Description 
 
Fuel Prices
 
Comments
  
JDS Pump-N-Go 248-288-6100
[email]
Aviation fuel, Aircraft parking (ramp or tiedown), Hangar leasing / sales

More info about JDS Pump-N-Go
Avfuel
100LL Jet A
SS $5.51 $4.51 
 Updated 16-Aug-2019
 
   write
SS=Self service
Update Fuel Prices
 

Would you like to see your business listed on this page?

 If your business provides an interesting product or service to pilots, flight crews, aircraft, or users of the Oakland/Troy Airport, you should consider listing it here.  To start the listing process, click on the button below
 
Add a business
 

Other Pages about Oakland/Troy Airport

Oakland/Troy Airport Website
Page from the Michigan Airport Directory (PDF)
 
Update a link
 
Copyright © AirNav, LLC. All rights reserved. Privacy Policy  Contact